RAF Lossiemouth

EGQS · Scozia, Regno Unito

Storia di METAR EGQS · RAF Lossiemouth

Di seguito sono riportati i METAR degli ultimi giorni. Seleziona un anno per sfogliare i METAR più vecchi, dall'anno 2007 in poi.

4 marzo 2024

Tempo Codice Tempo meteorologico Temp. Vista Base nuvolosa Vento METAR/SPECI
22:20
V
5 °C 10 km+ - 110° 110° 12 kt METAR EGQS 042220Z 11012KT CAVOK 05/02 Q1007 NOSIG RMK BLU BLU
21:50
V
4 °C 10 km+ - 120° 120° 13 kt METAR EGQS 042150Z 12013KT CAVOK 04/02 Q1007 NOSIG RMK BLU BLU
21:20
V
4 °C 10 km+ - 120° 120° 11 kt METAR EGQS 042120Z 12011KT CAVOK 04/01 Q1007 NOSIG
20:50
V
5 °C 10 km+ - 120° 120° 13 kt METAR EGQS 042050Z 12013KT 9999 FEW027 05/01 Q1007 NOSIG RMK BLU BLU
19:20
V
5 °C 10 km+ - 140° 140° 2 kt METAR EGQS 041920Z 14002KT 9999 FEW027 05/M00 Q//// NOSIG RMK BLU BLU
18:50
V
6 °C 10 km+ - 140° 140° 5 kt METAR EGQS 041850Z 14005KT 9999 FEW027 06/M00 Q//// RMK BLU
18:20
V
6 °C 10 km+ - 130° 130° 14 kt METAR EGQS 041820Z 13014KT 9999 FEW027 06/M01 Q1007 NOSIG RMK BLU BLU
17:50
V
6 °C 10 km+ - 160° 160° 12 kt METAR EGQS 041750Z 16012KT 9999 FEW027 06/M00 Q1007 NOSIG RMK BLU BLU
17:20
V
7 °C 10 km+ - 140° 140° 10 kt METAR EGQS 041720Z 14010KT 9999 FEW027 SCT200 07/M00 Q1007 NOSIG
16:50
V
8 °C 10 km+ - 140° 140° 9 kt METAR EGQS 041650Z 14009KT 9999 FEW027 SCT110 08/00 Q1007 NOSIG RMK BLU BLU
16:20
V
8 °C 10 km+ - 140° 140° 10 kt METAR EGQS 041620Z 14010KT 9999 FEW027 SCT120 08/00 Q1007 NOSIG RMK BLU BLU
15:50
V
9 °C 10 km+ - 130° 130° 13 kt METAR EGQS 041550Z 13013KT 9999 FEW027 SCT120 09/00 Q1007 NOSIG RMK BLU BLU
15:20
V
9 °C 10 km+ - 130° 130° 13 kt METAR EGQS 041520Z 13013KT 9999 FEW027 SCT250 09/00 Q1007 NOSIG RMK BLU BLU
14:50
V
9 °C 10 km+ - 140° 140° 13 kt METAR EGQS 041450Z 14013KT 9999 FEW025 SCT250 09/00 Q1007 NOSIG RMK BLU BLU
14:20
V
9 °C 10 km+ - 140° 140° 12 kt METAR EGQS 041420Z 14012KT 9999 FEW025 SCT250 09/01 Q1007 NOSIG RMK BLU BLU
13:50
V
9 °C 10 km+ - 150° 150° 12 kt METAR EGQS 041350Z 15012KT 9999 FEW025 09/00 Q1007 NOSIG RMK BLU BLU
13:20
V
9 °C 10 km+ - 140° 140° 14 kt METAR EGQS 041320Z 14014KT 9999 FEW025 09/00 Q1008 NOSIG RMK BLU BLU
12:50
V
9 °C 10 km+ - 150° 150° 11 kt METAR EGQS 041250Z 15011KT 9999 FEW025 09/00 Q1008 NOSIG RMK BLU BLU
12:20
V
9 °C 10 km+ - 160° 160° 11 kt METAR EGQS 041220Z 16011KT 9999 FEW022 09/00 Q1008 NOSIG RMK BLU BLU
11:50
V
8 °C 10 km+ - 160° 160° 7 kt METAR EGQS 041150Z 16007KT 9999 FEW022 08/00 Q1008 NOSIG RMK BLU BLU
11:20
V
8 °C 10 km+ - 100° 100° 7 kt METAR EGQS 041120Z 10007KT 9999 FEW022 08/01 Q1008 NOSIG
10:50
V
7 °C 10 km+ - 130° 130° 9 kt METAR EGQS 041050Z 13009KT 9999 FEW020 07/01 Q1008 NOSIG RMK BLU BLU
10:20
V
6 °C 10 km+ - 140° 140° 5 kt METAR EGQS 041020Z 14005KT 9999 FEW020 06/01 Q1008 NOSIG RMK BLU BLU
09:50
V
5 °C 10 km+ - 120° 120° 5 kt METAR EGQS 040950Z 12005KT 9999 FEW020 05/00 Q1008 NOSIG RMK BLU BLU
09:20
V
4 °C 10 km+ - 120° 120° 5 kt METAR EGQS 040920Z 12005KT 9999 FEW020 04/M00 Q1008 NOSIG RMK BLU BLU
08:50
V
3 °C 10 km+ - 120° 120° 5 kt METAR EGQS 040850Z 12005KT 9999 FEW020 03/M01 Q1008 NOSIG RMK BLU BLU
08:20
V
2 °C 10 km+ - 130° 130° 4 kt METAR EGQS 040820Z 13004KT 9999 FEW020 02/M01 Q1008 NOSIG RMK BLU BLU
07:50
V
1 °C 10 km+ - 150° 150° 5 kt METAR EGQS 040750Z 15005KT CAVOK 01/M02 Q1008 NOSIG RMK BLU BLU
07:20
V
0 °C 10 km+ - 140° 140° 4 kt METAR EGQS 040720Z 14004KT CAVOK 00/M01 Q1008 NOSIG
06:50
V
1 °C 10 km+ - 120° 120° 4 kt METAR EGQS 040650Z 12004KT CAVOK 01/M02 Q1007 RMK BLU
05:50
V
1 °C 10 km+ - 150° 150° 5 kt METAR EGQS 040550Z 15005KT CAVOK 01/M01 Q1007 RMK BLU
04:50
V
0 °C 10 km+ - 160° 160° 6 kt METAR EGQS 040450Z 16006KT CAVOK 00/M01 Q1006 RMK BLU
03:50
V
1 °C 10 km+ - 160° 160° 6 kt METAR EGQS 040350Z 16006KT CAVOK 01/M01 Q1006 RMK BLU
02:50
V
1 °C 10 km+ - 160° 160° 5 kt METAR EGQS 040250Z 16005KT CAVOK 01/M01 Q1006 RMK BLU
01:50
V
0 °C 10 km+ - 160° 160° 7 kt METAR EGQS 040150Z 16007KT 9999 SKC 00/M01 Q1006 RMK BLU
00:50
V
3 °C 10 km+ - 140° 140° 8 kt METAR EGQS 040050Z 14008KT CAVOK 03/01 Q1005 RMK BLU

3 marzo 2024

Tempo Codice Tempo meteorologico Temp. Vista Base nuvolosa Vento METAR/SPECI
23:50
V
3 °C 10 km+ - 130° 130° 8 kt METAR EGQS 032350Z 13008KT CAVOK 03/01 Q1005 RMK BLU
22:50
V
4 °C 10 km+ - 130° 130° 6 kt METAR EGQS 032250Z 13006KT CAVOK 04/02 Q1005 RMK BLU
21:50
V
3 °C 10 km+ - 140° 140° 4 kt METAR EGQS 032150Z 14004KT 9999 FEW039 SCT250 03/01 Q1004 RMK BLU
20:50
V
4 °C 10 km+ - 130° 130° 7 kt METAR EGQS 032050Z 13007KT CAVOK 04/01 Q1004 RMK BLU
19:50
V
4 °C 10 km+ 15.000 ft 160° 160° 4 kt METAR EGQS 031950Z AUTO 16004KT 9999 OVC150/// 04/01 Q1004
18:50
V
4 °C 10 km+ 14.000 ft 160° 160° 6 kt METAR EGQS 031850Z 16006KT 9999 FEW045 BKN140 04/01 Q1003 RMK BLU
17:50
V
6 °C 10 km+ 14.000 ft 160° 160° 4 kt METAR EGQS 031750Z 16004KT 9999 FEW035 BKN140 06/01 Q1003 RMK BLU
16:50
V
7 °C 10 km+ 18.000 ft 160° 160° 12 kt METAR EGQS 031650Z 16012KT 9999 FEW036 BKN180 07/02 Q1001 NOSIG RMK BLU BLU
15:50
V
7 °C 10 km+ 15.000 ft 150° 150° 9 kt METAR EGQS 031550Z 15009KT 9999 FEW030 BKN150 07/02 Q1001 NOSIG RMK BLU BLU
15:20
V
7 °C 10 km+ 15.000 ft 140° 140° 8 kt METAR EGQS 031520Z 14008KT 9999 FEW030 BKN150 07/02 Q1002 NOSIG RMK BLU BLU
14:50
V
7 °C 10 km+ 15.000 ft 120° 120° 9 kt METAR EGQS 031450Z 12009KT 9999 FEW036 BKN150 07/02 Q1001 NOSIG RMK BLU BLU
13:50
V
7 °C 10 km+ 15.000 ft 150° 150° 13 kt METAR EGQS 031350Z 15013KT 9999 FEW030 BKN150 07/02 Q1001 NOSIG RMK BLU BLU
12:50
V
7 °C 10 km+ 14.000 ft 140° 140° 10 kt METAR EGQS 031250Z 14010KT 9999 FEW027 BKN140 07/02 Q1000 NOSIG RMK BLU BLU
11:50
V
7 °C 10 km+ 18.000 ft 160° 160° 14 kt METAR EGQS 031150Z 16014KT 9999 FEW024 BKN180 07/02 Q1000 NOSIG RMK BLU BLU
10:50
V
6 °C 10 km+ - 140° 140° 15 kt METAR EGQS 031050Z 14015KT 9999 SCT023 SCT140 06/02 Q0999 BECMG SCT025 RMK WHT BECMG BLU
10:29
V
6 °C 10 km+ 14.000 ft 140° 140° 9 kt METAR EGQS 031029Z 14009KT 9999 SCT022 BKN140 06/03 Q0999 TEMPO FEW022 RMK WHT TEMPO BLU
09:50
V
6 °C 10 km+ 16.000 ft 130° 130° 12 kt METAR EGQS 030950Z 13012KT 9999 FEW020 BKN160 06/04 Q0998 NOSIG RMK BLU BLU
08:50
V
6 °C 10 km+ - 120° 120° 10 kt METAR EGQS 030850Z 12010KT 9999 SCT018 SCT030 06/04 Q0998 RMK WHT
08:20
V
6 °C 10 km+ - 120° 120° 7 kt METAR EGQS 030820Z 12007KT 9999 FEW020 SCT031 06/04 Q0998 RMK BLU
07:50
V
5 °C 10 km+ - 120° 120° 9 kt METAR EGQS 030750Z 12009KT 9999 FEW018 SCT180 05/04 Q0997 RMK BLU
06:50
V
6 °C 10 km+ 25.000 ft 120° 120° 12 kt METAR EGQS 030650Z 12012KT 9999 FEW013 SCT150 BKN250 06/04 Q0997 RMK BLU
05:50
M
5 °C 10 km+ 2.200 ft 120° 120° 10 kt METAR EGQS 030550Z 12010KT 9999 SCT014 BKN022 BKN150 05/04 Q0996 RMK GRN
04:50
M
6 °C 10 km+ 1.300 ft 060° 060° 13 kt METAR EGQS 030450Z 06013KT 9999 -RA FEW008 BKN013 BKN038 06/05 Q0996 BECMG BKN025 RMK GRN BECMG BLU
03:50
M
5 °C 6 km 1.100 ft 100° 100° 13 kt METAR EGQS 030350Z 10013KT 6000 RADZ BKN011 BKN018 05/04 Q0997 TEMPO 9999 NSW BKN018 RMK GRN TEMPO WHT
02:50
M
6 °C 6 km 1.200 ft 100° 100° 14 kt METAR EGQS 030250Z 10014KT 6000 -RADZ BKN012 BKN032 06/04 Q0998 TEMPO 9999 NSW BKN018 RMK GRN TEMPO WHT
01:50
M
6 °C 7 km 1.600 ft 090° 090° 11 kt METAR EGQS 030150Z 09011KT 7000 -RADZ BKN016 BKN040 06/05 Q0998 TEMPO BKN012 RMK WHT TEMPO GRN
01:20
M
6 °C 10 km+ 1.300 ft 090° 090° 13 kt METAR EGQS 030120Z AUTO 09013KT 9999 -RA BKN013/// SCT030/// 06/04 Q0998
00:50
M
6 °C 10 km+ 1.800 ft 080° 080° 13 kt METAR EGQS 030050Z 08013KT 9999 -RA BKN018 BKN026 06/05 Q0998 TEMPO 4000 RA SCT012 RMK WHT TEMPO GRN

2 marzo 2024

Tempo Codice Tempo meteorologico Temp. Vista Base nuvolosa Vento METAR/SPECI
23:50
V
6 °C 10 km+ 4.800 ft 100° 100° 14 kt METAR EGQS 022350Z 10014KT 9999 FEW016 BKN048 BKN200 06/04 Q0998 TEMPO SCT018 RMK BLU TEMPO WHT
22:50
V
5 °C 10 km+ 4.000 ft 110° 110° 11 kt METAR EGQS 022250Z 11011KT 9999 -RA FEW016 BKN040 05/03 Q0999 TEMPO SCT016 RMK BLU TEMPO WHT
21:50
V
4 °C 10 km+ - 070° 070° 3 kt METAR EGQS 022150Z 07003KT 9999 FEW013 04/03 Q0999 TEMPO SCT018 RMK BLU TEMPO WHT
20:50
V
4 °C 10 km+ - 110° 110° 6 kt METAR EGQS 022050Z 11006KT 9999 FEW018 SCT070 04/02 Q0998 NOSIG RMK BLU BLU
19:50
V
4 °C 10 km+ 3.100 ft 090° 090° 5 kt METAR EGQS 021950Z 09005KT 9999 FEW020 BKN031 04/02 Q0998 RMK BLU
18:50
V
4 °C 10 km+ - 130° 130° 11 kt METAR EGQS 021850Z 13011KT 9999 FEW030 SCT050 04/02 Q0997 RMK BLU
18:20
V
5 °C 10 km+ - 120° 120° 7 kt METAR EGQS 021820Z AUTO 12007KT 9999 FEW047/// 05/02 Q0997
17:50
V
6 °C 10 km+ 25.000 ft 110° 110° 6 kt METAR EGQS 021750Z 11006KT 9999 FEW010 SCT048 BKN250 06/03 Q0996 RMK BLU
16:50
V
6 °C 10 km+ 6.000 ft 140° 140° 4 kt METAR EGQS 021650Z 14004KT 9999 FEW008 SCT032 BKN060 06/03 Q0995 RMK BLU
15:50
V
6 °C 10 km+ 25.000 ft 190° 190° 7 kt METAR EGQS 021550Z 19007KT 9999 FEW007 SCT061 BKN250 06/03 Q0994 RMK BLU
14:50
M
5 °C 10 km+ 1.800 ft 250° 250° 10 kt METAR EGQS 021450Z 25010KT 9999 FEW007 BKN018 05/04 Q0993 RMK WHT
13:50
V
4 °C 10 km+ 3.100 ft 250° 250° 7 kt METAR EGQS 021350Z 25007KT 9999 FEW007 BKN031 04/03 Q0993 RMK BLU
12:50
M
2 °C 5 km 2.900 ft 240° 240° 6 kt METAR EGQS 021250Z 24006KT 5000 RADZ FEW013 SCT020 OVC029 02/01 Q0993 RMK WHT
11:50
I
2 °C 3 km 1.800 ft 140° 140° 3 kt METAR EGQS 021150Z 14003KT 3000 +RA FEW005 BKN018 OVC025 02/01 Q0994 RMK YLO1
11:13
L
2 °C 1,2 km 1.200 ft 090° 090° 9 kt METAR EGQS 021113Z 09009KT 1200 RA SHGS SCT005 BKN012 02/01 Q0994 RMK AMB
10:50
V
5 °C 10 km+ 4.500 ft 250° 250° 4 kt METAR EGQS 021050Z 25004KT 9999 FEW010 SCT037 BKN045 05/04 Q0993 RMK BLU
09:50
V
5 °C 10 km+ 11.000 ft 360° 360° 0 kt METAR EGQS 020950Z 00000KT 9999 FEW012 SCT052 OVC110 05/04 Q0994 RMK BLU
08:50
V
4 °C 10 km+ 5.200 ft 060° 060° 1 kt METAR EGQS 020850Z 06001KT 9999 SCT012 BKN052 OVC130 04/03 Q0994 RMK GRN
07:50
I
5 °C 5 km 800 ft 020° 020° 11 kt METAR EGQS 020750Z 02011KT 5000 RA BKN008 OVC018 05/04 Q0994 RMK GRN
06:50
M
5 °C 10 km+ 1.800 ft 040° 040° 12 kt METAR EGQS 020650Z 04012KT 9999 -RA FEW014 OVC018 05/03 Q0994 RMK WHT
05:50
M
5 °C 10 km+ 1.600 ft 030° 030° 9 kt METAR EGQS 020550Z 03009KT 9999 -RADZ OVC016 05/03 Q0995 RMK WHT